createdAt,value
2018-06-14T00:00:03.777Z,11.20
2018-06-14T00:02:32.094Z,11.30
2018-06-14T00:05:00.435Z,11.30
2018-06-14T00:07:28.759Z,11.30
2018-06-14T00:09:57.114Z,11.30
2018-06-14T00:12:25.443Z,11.30
2018-06-14T00:14:53.783Z,11.30
2018-06-14T00:17:22.120Z,11.30
2018-06-14T00:19:50.475Z,11.20
2018-06-14T00:22:18.990Z,11.10
2018-06-14T00:24:47.614Z,11.10
2018-06-14T00:27:16.082Z,11.10
2018-06-14T00:29:44.478Z,11.10
2018-06-14T00:32:13.044Z,11.10
2018-06-14T00:34:41.379Z,11.10
2018-06-14T00:37:09.727Z,11.10
2018-06-14T00:39:38.054Z,11.10
2018-06-14T00:42:06.490Z,11.00
2018-06-14T00:47:03.015Z,10.90
2018-06-14T00:49:31.334Z,10.80
2018-06-14T00:51:59.679Z,10.80
2018-06-14T00:54:28.009Z,10.70
2018-06-14T00:57:07.895Z,10.70
2018-06-14T00:59:36.211Z,10.70
2018-06-14T01:02:04.555Z,10.70
2018-06-14T01:04:32.902Z,10.60
2018-06-14T01:07:01.303Z,10.50
2018-06-14T01:09:29.631Z,10.50
2018-06-14T01:11:58.427Z,10.40
2018-06-14T01:14:26.775Z,10.30
2018-06-14T01:16:55.127Z,10.10
2018-06-14T01:19:23.455Z,10.20
2018-06-14T01:21:51.803Z,10.10
2018-06-14T01:24:20.171Z,10.10
2018-06-14T01:26:48.574Z,10.10
2018-06-14T01:29:16.919Z,10.20
2018-06-14T01:31:45.275Z,10.20
2018-06-14T01:34:13.591Z,10.20
2018-06-14T01:36:41.908Z,10.30
2018-06-14T01:39:10.491Z,10.30
2018-06-14T01:41:39.027Z,10.40
2018-06-14T01:44:07.406Z,10.30
2018-06-14T01:46:35.731Z,10.30
2018-06-14T01:49:04.127Z,10.20
2018-06-14T01:51:32.450Z,10.30
2018-06-14T01:54:00.815Z,10.30
2018-06-14T01:56:29.131Z,10.30
2018-06-14T01:58:57.479Z,10.20
2018-06-14T02:01:25.795Z,10.20
2018-06-14T02:03:54.138Z,10.20
2018-06-14T02:06:22.458Z,10.20
2018-06-14T02:08:50.803Z,10.20
2018-06-14T02:11:19.123Z,10.20
2018-06-14T02:13:47.471Z,10.30
2018-06-14T02:16:15.791Z,10.30
2018-06-14T02:18:44.134Z,10.20
2018-06-14T02:21:12.464Z,10.20
2018-06-14T02:23:40.825Z,10.10
2018-06-14T02:26:09.144Z,10.10
2018-06-14T02:28:37.512Z,10.20
2018-06-14T02:31:05.835Z,10.20
2018-06-14T02:33:34.188Z,10.20
2018-06-14T02:36:02.571Z,10.20
2018-06-14T02:38:30.900Z,10.10
2018-06-14T02:40:59.281Z,10.10
2018-06-14T02:43:27.667Z,10.10
2018-06-14T02:45:56.019Z,9.90
2018-06-14T02:48:24.349Z,9.90
2018-06-14T02:50:52.722Z,9.80
2018-06-14T02:53:21.051Z,9.90
2018-06-14T02:55:49.961Z,9.90
2018-06-14T02:58:18.296Z,9.90
2018-06-14T03:00:46.849Z,9.90
2018-06-14T03:03:16.139Z,9.90
2018-06-14T03:05:44.768Z,9.90
2018-06-14T03:08:13.095Z,9.90
2018-06-14T03:10:41.447Z,9.90
2018-06-14T03:13:09.771Z,9.90
2018-06-14T03:15:38.135Z,9.90
2018-06-14T03:18:06.492Z,9.90
2018-06-14T03:20:34.857Z,9.80
2018-06-14T03:23:03.219Z,9.80
2018-06-14T03:25:31.566Z,9.80
2018-06-14T03:27:59.903Z,9.80
2018-06-14T03:30:28.287Z,9.80
2018-06-14T03:32:56.662Z,9.80
2018-06-14T03:35:24.991Z,9.80
2018-06-14T03:37:53.359Z,9.90
2018-06-14T03:40:21.690Z,9.90
2018-06-14T03:42:50.056Z,10.00
2018-06-14T03:45:19.722Z,10.00
2018-06-14T03:47:49.783Z,10.00
2018-06-14T03:50:18.251Z,10.00
2018-06-14T03:52:46.612Z,10.10
2018-06-14T03:55:14.954Z,10.10
2018-06-14T03:57:43.327Z,10.10
2018-06-14T04:00:11.667Z,10.20
2018-06-14T04:02:40.024Z,10.10
2018-06-14T04:05:08.399Z,10.10
2018-06-14T04:07:36.857Z,10.10
2018-06-14T04:10:05.275Z,10.10
2018-06-14T04:12:33.599Z,10.10
2018-06-14T04:15:01.931Z,10.10
2018-06-14T04:17:30.460Z,10.10
2018-06-14T04:19:58.799Z,10.20
2018-06-14T04:22:27.171Z,10.30
2018-06-14T04:24:55.507Z,10.50
2018-06-14T04:27:23.913Z,10.50
2018-06-14T04:29:52.242Z,10.60
2018-06-14T04:32:20.597Z,10.70
2018-06-14T04:34:48.935Z,10.80
2018-06-14T04:37:17.299Z,10.80
2018-06-14T04:39:45.663Z,10.90
2018-06-14T04:42:14.007Z,11.00
2018-06-14T04:44:42.406Z,11.00
2018-06-14T04:47:10.743Z,11.10
2018-06-14T04:49:39.094Z,11.20
2018-06-14T04:52:07.447Z,11.20
2018-06-14T04:54:35.807Z,11.20
2018-06-14T04:57:04.147Z,11.30
2018-06-14T04:59:32.511Z,11.40
2018-06-14T05:02:00.859Z,11.40
2018-06-14T05:04:29.222Z,11.60
2018-06-14T05:06:57.566Z,11.70
2018-06-14T05:09:25.939Z,11.80
2018-06-14T05:11:54.279Z,12.00
2018-06-14T05:14:22.643Z,12.30
2018-06-14T05:16:51.247Z,12.40
2018-06-14T05:19:19.595Z,12.50
2018-06-14T05:21:47.930Z,12.50
2018-06-14T05:24:16.279Z,12.60
2018-06-14T05:26:44.615Z,12.60
2018-06-14T05:29:12.959Z,12.50
2018-06-14T05:31:41.295Z,12.50
2018-06-14T05:34:09.691Z,12.50
2018-06-14T05:36:38.024Z,12.70
2018-06-14T05:39:08.377Z,13.00
2018-06-14T05:41:36.727Z,13.30
2018-06-14T05:44:05.075Z,13.50
2018-06-14T05:46:33.422Z,13.80
2018-06-14T05:49:01.740Z,14.10
2018-06-14T05:51:30.403Z,14.50
2018-06-14T05:53:58.731Z,14.80
2018-06-14T05:56:27.102Z,15.10
2018-06-14T05:58:55.648Z,15.30
2018-06-14T06:01:24.041Z,15.40
2018-06-14T06:03:52.434Z,15.60
2018-06-14T06:06:20.795Z,15.80
2018-06-14T06:08:49.120Z,15.90
2018-06-14T06:11:17.547Z,16.10
2018-06-14T06:13:46.514Z,16.40
2018-06-14T06:16:14.863Z,16.60
2018-06-14T06:18:43.307Z,16.90
2018-06-14T06:21:11.667Z,17.00
2018-06-14T06:23:39.995Z,17.10
2018-06-14T06:26:08.369Z,17.10
2018-06-14T06:28:36.691Z,17.20
2018-06-14T06:31:05.087Z,17.20
2018-06-14T06:33:33.400Z,17.10
2018-06-14T06:36:01.751Z,17.30
2018-06-14T06:38:30.099Z,17.30
2018-06-14T06:40:58.476Z,17.20
2018-06-14T06:43:26.959Z,17.50
2018-06-14T06:45:55.291Z,17.60
2018-06-14T06:48:23.615Z,17.80
2018-06-14T06:50:51.955Z,17.90
2018-06-14T06:53:20.280Z,18.00
2018-06-14T06:55:48.635Z,18.00
2018-06-14T06:58:16.947Z,18.00
2018-06-14T07:00:45.311Z,18.20
2018-06-14T07:03:13.908Z,18.40
2018-06-14T07:05:42.241Z,18.40
2018-06-14T07:08:10.561Z,18.50
2018-06-14T07:10:38.911Z,18.80
2018-06-14T07:13:07.219Z,18.50
2018-06-14T07:15:35.559Z,18.50
2018-06-14T07:18:03.892Z,18.80
2018-06-14T07:20:32.232Z,19.00
2018-06-14T07:23:00.547Z,19.00
2018-06-14T07:25:29.081Z,19.10
2018-06-14T07:27:57.408Z,19.30
2018-06-14T07:30:25.755Z,19.30
2018-06-14T07:32:54.075Z,19.50
2018-06-14T07:35:22.391Z,19.50
2018-06-14T07:37:50.723Z,19.60
2018-06-14T07:40:19.043Z,19.50
2018-06-14T07:42:47.391Z,19.70
2018-06-14T07:45:15.732Z,19.80
2018-06-14T07:47:44.143Z,19.90
2018-06-14T07:50:12.475Z,19.90
2018-06-14T07:52:40.823Z,20.10
2018-06-14T07:55:09.151Z,20.10
2018-06-14T07:57:37.503Z,19.90
2018-06-14T08:00:05.944Z,19.90
2018-06-14T08:02:34.235Z,19.80
2018-06-14T08:05:02.555Z,20.10
2018-06-14T08:07:30.935Z,20.40
2018-06-14T08:09:59.255Z,20.60
2018-06-14T08:12:27.609Z,20.90
2018-06-14T08:14:55.935Z,20.90
2018-06-14T08:17:24.285Z,20.90
2018-06-14T08:19:52.615Z,20.60
2018-06-14T08:22:20.963Z,20.30
2018-06-14T08:24:49.284Z,20.50
2018-06-14T08:29:45.699Z,20.40
2018-06-14T08:32:14.051Z,20.40
2018-06-14T08:34:42.391Z,20.00
2018-06-14T08:37:10.747Z,20.20
2018-06-14T08:39:39.063Z,20.80
2018-06-14T08:42:07.396Z,21.20
2018-06-14T08:44:35.755Z,21.40
2018-06-14T08:47:04.076Z,21.40
2018-06-14T08:49:32.410Z,21.60
2018-06-14T08:52:00.825Z,21.80
2018-06-14T08:54:29.162Z,21.80
2018-06-14T08:56:57.570Z,21.20
2018-06-14T08:59:25.918Z,21.20
2018-06-14T09:01:54.226Z,21.30
2018-06-14T09:04:22.591Z,21.30
2018-06-14T09:06:50.908Z,20.90
2018-06-14T09:09:19.259Z,21.10
2018-06-14T09:11:47.579Z,20.90
2018-06-14T09:14:15.968Z,20.80
2018-06-14T09:16:44.279Z,20.90
2018-06-14T09:19:12.619Z,21.10
2018-06-14T09:21:40.943Z,21.00
2018-06-14T09:24:09.274Z,20.80
2018-06-14T09:26:37.590Z,21.10
2018-06-14T09:29:05.969Z,21.00
2018-06-14T09:31:34.311Z,20.90
2018-06-14T09:34:02.624Z,20.70
2018-06-14T09:36:31.711Z,20.60
2018-06-14T09:39:00.043Z,20.60
2018-06-14T09:41:28.414Z,20.60
2018-06-14T09:43:56.771Z,20.60
2018-06-14T09:46:25.107Z,20.80
2018-06-14T09:48:59.302Z,21.20
2018-06-14T09:51:27.643Z,21.50
2018-06-14T09:53:55.954Z,21.80
2018-06-14T09:56:24.378Z,21.70
2018-06-14T09:58:52.688Z,21.60
2018-06-14T10:01:21.023Z,21.60
2018-06-14T10:03:49.335Z,21.80
2018-06-14T10:06:17.851Z,21.40
2018-06-14T10:08:46.196Z,21.30
2018-06-14T10:11:14.535Z,21.50
2018-06-14T10:13:42.854Z,21.60
2018-06-14T10:16:11.190Z,21.80
2018-06-14T10:18:39.530Z,21.90
2018-06-14T10:21:07.855Z,21.80
2018-06-14T10:23:36.187Z,21.70
2018-06-14T10:26:04.533Z,21.70
2018-06-14T10:28:32.884Z,21.60
2018-06-14T10:31:01.545Z,21.60
2018-06-14T10:33:29.863Z,21.60
2018-06-14T10:35:58.199Z,21.80
2018-06-14T10:38:26.550Z,21.80
2018-06-14T10:40:54.892Z,21.90
2018-06-14T10:43:23.215Z,22.00
2018-06-14T10:48:19.632Z,22.00
2018-06-14T10:50:47.987Z,21.90
2018-06-14T10:53:16.299Z,22.10
2018-06-14T10:55:44.614Z,22.40
2018-06-14T10:58:12.971Z,22.50
2018-06-14T11:00:41.299Z,22.40
2018-06-14T11:03:09.648Z,22.40
2018-06-14T11:05:37.967Z,22.20
2018-06-14T11:08:06.315Z,22.10
2018-06-14T11:10:34.655Z,22.10
2018-06-14T11:13:03.002Z,22.20
2018-06-14T11:17:59.496Z,22.70
2018-06-14T11:20:27.823Z,22.60
2018-06-14T11:22:56.171Z,22.70
2018-06-14T11:25:24.527Z,22.70
2018-06-14T11:27:52.866Z,23.00
2018-06-14T11:30:21.183Z,22.80
2018-06-14T11:32:49.535Z,22.40
2018-06-14T11:35:17.851Z,22.30
2018-06-14T11:37:46.195Z,22.20
2018-06-14T11:40:14.511Z,22.40
2018-06-14T11:42:42.859Z,22.40
2018-06-14T11:45:11.208Z,22.70
2018-06-14T11:47:39.564Z,22.60
2018-06-14T11:50:07.871Z,22.70
2018-06-14T11:52:36.199Z,22.60
2018-06-14T11:55:04.539Z,22.70
2018-06-14T11:57:32.851Z,23.00
2018-06-14T12:00:01.192Z,23.00
2018-06-14T12:02:29.506Z,23.00
2018-06-14T12:04:57.843Z,23.10
2018-06-14T12:07:26.151Z,23.30
2018-06-14T12:09:54.495Z,23.30
2018-06-14T12:12:22.802Z,23.20
2018-06-14T12:14:51.145Z,23.30
2018-06-14T12:17:19.464Z,23.30
2018-06-14T12:19:47.807Z,23.50
2018-06-14T12:22:16.123Z,23.40
2018-06-14T12:24:44.463Z,23.30
2018-06-14T12:27:12.807Z,23.30
2018-06-14T12:32:09.187Z,23.00
2018-06-14T12:34:37.528Z,23.00
2018-06-14T12:37:05.834Z,23.00
2018-06-14T12:39:34.167Z,23.20
2018-06-14T12:42:02.487Z,23.30
2018-06-14T12:44:31.030Z,23.20
2018-06-14T12:46:59.355Z,23.00
2018-06-14T12:49:27.671Z,23.10
2018-06-14T12:51:56.015Z,23.30
2018-06-14T12:54:24.335Z,23.60
2018-06-14T12:56:52.682Z,23.80
2018-06-14T12:59:21.019Z,23.60
2018-06-14T13:01:49.359Z,23.50
2018-06-14T13:04:17.672Z,23.20
2018-06-14T13:06:46.023Z,23.40
2018-06-14T13:09:14.344Z,23.30
2018-06-14T13:11:42.803Z,23.50
2018-06-14T13:14:11.691Z,23.70
2018-06-14T13:16:40.045Z,23.70
2018-06-14T13:19:08.570Z,23.70
2018-06-14T13:21:36.931Z,23.60
2018-06-14T13:24:05.251Z,23.60
2018-06-14T13:26:33.603Z,23.60
2018-06-14T13:29:01.932Z,23.60
2018-06-14T13:31:30.276Z,23.50
2018-06-14T13:33:58.710Z,23.50
2018-06-14T13:36:27.052Z,23.30
2018-06-14T13:38:55.367Z,23.40
2018-06-14T13:41:23.743Z,23.40
2018-06-14T13:43:52.091Z,23.40
2018-06-14T13:46:20.475Z,23.50
2018-06-14T13:48:48.878Z,23.70
2018-06-14T13:51:17.138Z,23.90
2018-06-14T13:53:45.514Z,23.80
2018-06-14T13:56:13.834Z,23.60
2018-06-14T13:58:42.191Z,23.60
2018-06-14T14:01:10.750Z,23.80
2018-06-14T14:03:38.978Z,23.80
2018-06-14T14:06:07.306Z,23.70
2018-06-14T14:08:35.681Z,23.50
2018-06-14T14:11:04.034Z,23.40
2018-06-14T14:13:32.387Z,23.30
2018-06-14T14:16:00.708Z,23.30
2018-06-14T14:18:29.054Z,23.20
2018-06-14T14:20:57.374Z,23.30
2018-06-14T14:23:25.727Z,23.40
2018-06-14T14:25:54.074Z,23.40
2018-06-14T14:28:22.424Z,23.60
2018-06-14T14:30:50.811Z,23.70
2018-06-14T14:33:19.160Z,23.70
2018-06-14T14:35:47.488Z,23.70
2018-06-14T14:38:15.832Z,23.80
2018-06-14T14:40:44.158Z,23.70
2018-06-14T14:43:12.503Z,23.70
2018-06-14T14:45:40.856Z,23.50
2018-06-14T14:48:09.262Z,23.50
2018-06-14T14:50:37.604Z,23.60
2018-06-14T14:53:06.002Z,23.40
2018-06-14T14:55:34.327Z,23.10
2018-06-14T14:58:02.668Z,23.10
2018-06-14T15:00:31.011Z,23.00
2018-06-14T15:02:59.351Z,23.00
2018-06-14T15:05:27.719Z,23.10
2018-06-14T15:07:56.186Z,23.10
2018-06-14T15:10:24.536Z,23.10
2018-06-14T15:12:52.917Z,23.10
2018-06-14T15:15:21.242Z,23.10
2018-06-14T15:17:49.646Z,23.00
2018-06-14T15:20:17.927Z,22.80
2018-06-14T15:22:46.272Z,22.80
2018-06-14T15:25:14.598Z,22.80
2018-06-14T15:27:42.968Z,22.60
2018-06-14T15:30:11.307Z,22.40
2018-06-14T15:32:39.646Z,22.40
2018-06-14T15:35:07.967Z,22.40
2018-06-14T15:37:36.315Z,22.40
2018-06-14T15:40:04.677Z,22.30
2018-06-14T15:42:33.016Z,22.20
2018-06-14T15:45:01.367Z,22.20
2018-06-14T15:47:29.699Z,21.70
2018-06-14T15:49:58.034Z,21.30
2018-06-14T15:52:26.382Z,21.00
2018-06-14T15:55:06.175Z,21.00
2018-06-14T15:57:34.541Z,20.90
2018-06-14T16:00:02.861Z,20.70
2018-06-14T16:02:31.305Z,20.70
2018-06-14T16:04:59.643Z,20.80
2018-06-14T16:07:28.837Z,20.80
2018-06-14T16:09:57.191Z,20.80
2018-06-14T16:12:25.563Z,20.60
2018-06-14T16:14:53.884Z,20.40
2018-06-14T16:17:22.226Z,20.40
2018-06-14T16:19:50.539Z,20.40
2018-06-14T16:22:18.854Z,20.20
2018-06-14T16:24:47.279Z,19.90
2018-06-14T16:27:15.596Z,19.50
2018-06-14T16:29:43.984Z,19.20
2018-06-14T16:32:12.325Z,19.10
2018-06-14T16:34:40.671Z,19.00
2018-06-14T16:37:08.983Z,18.70
2018-06-14T16:39:37.322Z,18.60
2018-06-14T16:42:05.661Z,18.50
2018-06-14T16:44:34.019Z,18.50
2018-06-14T16:47:02.343Z,18.60
2018-06-14T16:49:30.694Z,18.70
2018-06-14T16:51:59.012Z,18.80
2018-06-14T16:54:27.347Z,18.50
2018-06-14T16:56:55.663Z,18.50
2018-06-14T16:59:24.023Z,18.50
2018-06-14T17:01:52.335Z,18.60
2018-06-14T17:04:20.719Z,18.40
2018-06-14T17:06:49.051Z,18.20
2018-06-14T17:09:17.411Z,18.20
2018-06-14T17:11:45.743Z,18.00
2018-06-14T17:14:14.094Z,17.90
2018-06-14T17:16:42.421Z,17.90
2018-06-14T17:19:10.818Z,17.90
2018-06-14T17:21:39.142Z,17.80
2018-06-14T17:24:07.499Z,18.00
2018-06-14T17:26:36.016Z,18.00
2018-06-14T17:29:04.359Z,18.00
2018-06-14T17:31:32.697Z,18.00
2018-06-14T17:34:01.055Z,18.00
2018-06-14T17:36:29.376Z,18.00
2018-06-14T17:38:57.707Z,17.90
2018-06-14T17:41:26.110Z,17.80
2018-06-14T17:43:54.403Z,17.70
2018-06-14T17:46:22.761Z,17.70
2018-06-14T17:48:51.107Z,17.60
2018-06-14T17:51:20.511Z,17.70
2018-06-14T17:53:48.896Z,17.70
2018-06-14T17:56:17.233Z,17.80
2018-06-14T17:58:45.679Z,17.80
2018-06-14T18:01:14.031Z,17.80
2018-06-14T18:03:42.456Z,17.70
2018-06-14T18:06:10.819Z,17.80
2018-06-14T18:08:39.184Z,17.70
2018-06-14T18:11:07.639Z,17.80
2018-06-14T18:13:36.131Z,17.80
2018-06-14T18:16:04.582Z,17.70
2018-06-14T18:18:34.453Z,17.60
2018-06-14T18:21:02.889Z,17.60
2018-06-14T18:23:31.251Z,17.50
2018-06-14T18:25:59.633Z,17.50
2018-06-14T18:28:27.935Z,17.50
2018-06-14T18:30:56.368Z,17.50
2018-06-14T18:33:24.802Z,17.40
2018-06-14T18:35:53.215Z,17.40
2018-06-14T18:38:21.547Z,17.40
2018-06-14T18:40:49.908Z,17.40
2018-06-14T18:43:18.259Z,17.40
2018-06-14T18:45:46.611Z,17.50
2018-06-14T18:48:15.087Z,17.60
2018-06-14T18:50:43.466Z,17.50
2018-06-14T18:53:11.807Z,17.50
2018-06-14T18:55:40.195Z,17.50
2018-06-14T18:58:08.606Z,17.50
2018-06-14T19:00:36.963Z,17.50
2018-06-14T19:03:05.409Z,17.50
2018-06-14T19:05:33.755Z,17.40
2018-06-14T19:08:02.084Z,17.50
2018-06-14T19:10:30.431Z,17.40
2018-06-14T19:12:58.848Z,17.40
2018-06-14T19:15:27.235Z,17.50
2018-06-14T19:17:55.591Z,17.40
2018-06-14T19:20:23.939Z,17.40
2018-06-14T19:22:52.273Z,17.40
2018-06-14T19:25:20.659Z,17.50
2018-06-14T19:27:48.978Z,17.40
2018-06-14T19:30:17.408Z,17.40
2018-06-14T19:32:46.002Z,17.40
2018-06-14T19:35:14.370Z,17.40
2018-06-14T19:37:42.719Z,17.40
2018-06-14T19:40:11.072Z,17.40
2018-06-14T19:42:39.441Z,17.20
2018-06-14T19:45:07.795Z,17.20
2018-06-14T19:47:36.135Z,17.20
2018-06-14T19:50:04.515Z,17.30
2018-06-14T19:52:32.874Z,17.30
2018-06-14T19:55:01.218Z,17.20
2018-06-14T19:57:29.587Z,17.20
2018-06-14T19:59:57.955Z,17.20
2018-06-14T20:02:26.333Z,17.10
2018-06-14T20:04:55.082Z,17.10
2018-06-14T20:07:23.455Z,17.10
2018-06-14T20:09:51.809Z,17.20
2018-06-14T20:12:20.179Z,17.10
2018-06-14T20:14:48.567Z,17.00
2018-06-14T20:17:16.925Z,16.90
2018-06-14T20:19:45.342Z,16.90
2018-06-14T20:22:13.720Z,16.80
2018-06-14T20:24:42.175Z,16.80
2018-06-14T20:27:10.543Z,16.80
2018-06-14T20:29:39.013Z,16.80
2018-06-14T20:32:07.455Z,16.90
2018-06-14T20:34:35.787Z,16.80
2018-06-14T20:37:04.186Z,16.80
2018-06-14T20:39:32.548Z,16.90
2018-06-14T20:42:00.965Z,16.80
2018-06-14T20:44:29.242Z,16.70
2018-06-14T20:46:57.597Z,16.70
2018-06-14T20:49:25.967Z,16.60
2018-06-14T20:51:54.372Z,16.60
2018-06-14T20:54:22.679Z,16.60
2018-06-14T20:56:51.055Z,16.60
2018-06-14T20:59:19.439Z,16.70
2018-06-14T21:01:47.779Z,16.60
2018-06-14T21:04:16.143Z,16.60
2018-06-14T21:06:44.512Z,16.60
2018-06-14T21:09:12.831Z,16.60
2018-06-14T21:11:41.301Z,16.70
2018-06-14T21:14:09.656Z,16.70
2018-06-14T21:16:38.360Z,16.70
2018-06-14T21:19:06.791Z,16.60
2018-06-14T21:21:35.131Z,16.60
2018-06-14T21:24:03.480Z,16.60
2018-06-14T21:26:31.815Z,16.60
2018-06-14T21:29:00.150Z,16.60
2018-06-14T21:31:28.486Z,16.50
2018-06-14T21:33:56.842Z,16.50
2018-06-14T21:36:25.183Z,16.50
2018-06-14T21:38:53.498Z,16.50
2018-06-14T21:41:21.835Z,16.50
2018-06-14T21:43:50.150Z,16.50
2018-06-14T21:46:18.501Z,16.60
2018-06-14T21:48:46.830Z,16.70
2018-06-14T21:51:15.179Z,16.50
2018-06-14T21:53:43.503Z,16.50
2018-06-14T21:56:11.871Z,16.50
2018-06-14T21:58:40.202Z,16.50
2018-06-14T22:01:08.627Z,16.50
2018-06-14T22:03:42.351Z,16.50
2018-06-14T22:06:10.671Z,16.60
2018-06-14T22:08:39.017Z,16.60
2018-06-14T22:11:07.367Z,16.60
2018-06-14T22:13:35.718Z,16.70
2018-06-14T22:16:04.061Z,16.70
2018-06-14T22:18:32.419Z,16.70
2018-06-14T22:21:00.842Z,16.70
2018-06-14T22:23:29.256Z,16.80
2018-06-14T22:25:57.619Z,16.70
2018-06-14T22:28:25.971Z,16.80
2018-06-14T22:30:54.295Z,16.70
2018-06-14T22:33:34.100Z,16.70
2018-06-14T22:36:02.514Z,16.70
2018-06-14T22:38:30.859Z,16.70
2018-06-14T22:40:59.175Z,16.70
2018-06-14T22:43:27.506Z,16.70
2018-06-14T22:45:55.830Z,16.70
2018-06-14T22:48:24.201Z,16.60
2018-06-14T22:51:03.739Z,16.60
2018-06-14T22:53:32.095Z,16.60
2018-06-14T22:56:00.509Z,16.50
2018-06-14T22:58:28.891Z,16.50
2018-06-14T23:02:03.919Z,16.60
2018-06-14T23:04:32.716Z,16.60
2018-06-14T23:07:01.065Z,16.60
2018-06-14T23:10:42.800Z,16.50
2018-06-14T23:13:12.543Z,16.60
2018-06-14T23:15:40.895Z,16.50
2018-06-14T23:18:09.254Z,16.40
2018-06-14T23:20:37.803Z,16.50
2018-06-14T23:23:06.622Z,16.50
2018-06-14T23:25:35.507Z,16.50
2018-06-14T23:28:03.850Z,16.50
2018-06-14T23:30:32.191Z,16.60
2018-06-14T23:33:00.539Z,16.60
2018-06-14T23:35:28.870Z,16.60
2018-06-14T23:37:57.244Z,16.60
2018-06-14T23:40:25.590Z,16.60
2018-06-14T23:45:22.813Z,16.60
2018-06-14T23:47:51.145Z,16.60
2018-06-14T23:50:19.460Z,16.50
2018-06-14T23:52:47.773Z,16.50
2018-06-14T23:55:16.070Z,16.50
2018-06-14T23:57:44.389Z,16.50
